sensor_id;sensor_type;location;lat;lon;timestamp;temperature;humidity
5286;DHT22;2665;53.112;7.358;2024-01-10T00:01:33;-5.10;1.00
5286;DHT22;2665;53.112;7.358;2024-01-10T00:03:59;-5.10;1.00
5286;DHT22;2665;53.112;7.358;2024-01-10T00:06:24;-5.10;1.00
5286;DHT22;2665;53.112;7.358;2024-01-10T00:08:50;-5.10;1.00
5286;DHT22;2665;53.112;7.358;2024-01-10T00:11:16;-5.10;1.00
5286;DHT22;2665;53.112;7.358;2024-01-10T00:13:42;-5.20;1.00
5286;DHT22;2665;53.112;7.358;2024-01-10T00:16:08;-5.20;1.00
5286;DHT22;2665;53.112;7.358;2024-01-10T00:18:34;-5.20;1.00
5286;DHT22;2665;53.112;7.358;2024-01-10T00:20:59;-5.20;1.00
5286;DHT22;2665;53.112;7.358;2024-01-10T00:23:25;-5.20;1.00
5286;DHT22;2665;53.112;7.358;2024-01-10T00:25:51;-5.20;1.00
5286;DHT22;2665;53.112;7.358;2024-01-10T00:28:17;-5.20;1.00
5286;DHT22;2665;53.112;7.358;2024-01-10T00:30:44;-5.20;1.00
5286;DHT22;2665;53.112;7.358;2024-01-10T00:33:10;-5.20;1.00
5286;DHT22;2665;53.112;7.358;2024-01-10T00:35:37;-5.20;1.00
5286;DHT22;2665;53.112;7.358;2024-01-10T00:38:03;-5.20;1.00
5286;DHT22;2665;53.112;7.358;2024-01-10T00:40:28;-5.20;1.00
5286;DHT22;2665;53.112;7.358;2024-01-10T00:42:54;-5.20;1.00
5286;DHT22;2665;53.112;7.358;2024-01-10T00:45:20;-5.10;1.00
5286;DHT22;2665;53.112;7.358;2024-01-10T00:50:12;-5.10;1.00
5286;DHT22;2665;53.112;7.358;2024-01-10T00:52:38;-5.10;1.00
5286;DHT22;2665;53.112;7.358;2024-01-10T00:55:04;-5.10;1.00
5286;DHT22;2665;53.112;7.358;2024-01-10T00:57:29;-5.10;1.00
5286;DHT22;2665;53.112;7.358;2024-01-10T00:59:55;-5.20;1.00
5286;DHT22;2665;53.112;7.358;2024-01-10T01:02:21;-5.20;1.00
5286;DHT22;2665;53.112;7.358;2024-01-10T01:04:46;-5.20;1.00
5286;DHT22;2665;53.112;7.358;2024-01-10T01:07:12;-5.20;1.00
5286;DHT22;2665;53.112;7.358;2024-01-10T01:09:37;-5.20;1.00
5286;DHT22;2665;53.112;7.358;2024-01-10T01:12:03;-5.20;1.00
5286;DHT22;2665;53.112;7.358;2024-01-10T01:14:29;-5.20;1.00
5286;DHT22;2665;53.112;7.358;2024-01-10T01:16:54;-5.10;2.30
5286;DHT22;2665;53.112;7.358;2024-01-10T01:19:20;-5.20;1.00
5286;DHT22;2665;53.112;7.358;2024-01-10T01:21:46;-5.20;1.00
5286;DHT22;2665;53.112;7.358;2024-01-10T01:24:11;-5.20;1.00
5286;DHT22;2665;53.112;7.358;2024-01-10T01:26:37;-5.20;1.00
5286;DHT22;2665;53.112;7.358;2024-01-10T01:29:03;-5.20;1.00
5286;DHT22;2665;53.112;7.358;2024-01-10T01:31:29;-5.20;1.00
5286;DHT22;2665;53.112;7.358;2024-01-10T01:33:54;-5.20;1.00
5286;DHT22;2665;53.112;7.358;2024-01-10T01:36:20;-5.20;1.00
5286;DHT22;2665;53.112;7.358;2024-01-10T01:38:46;-5.10;1.00
5286;DHT22;2665;53.112;7.358;2024-01-10T01:41:11;-5.10;2.90
5286;DHT22;2665;53.112;7.358;2024-01-10T01:43:38;-5.10;4.70
5286;DHT22;2665;53.112;7.358;2024-01-10T01:46:03;-5.00;6.60
5286;DHT22;2665;53.112;7.358;2024-01-10T01:48:29;-5.00;5.30
5286;DHT22;2665;53.112;7.358;2024-01-10T01:51:01;-5.10;4.10
5286;DHT22;2665;53.112;7.358;2024-01-10T01:53:28;-5.10;2.50
5286;DHT22;2665;53.112;7.358;2024-01-10T01:55:57;-5.10;2.50
5286;DHT22;2665;53.112;7.358;2024-01-10T01:58:24;-5.10;3.70
5286;DHT22;2665;53.112;7.358;2024-01-10T02:00:50;-5.10;3.70
5286;DHT22;2665;53.112;7.358;2024-01-10T02:03:16;-5.10;3.50
5286;DHT22;2665;53.112;7.358;2024-01-10T02:05:42;-5.20;5.50
5286;DHT22;2665;53.112;7.358;2024-01-10T02:08:08;-5.20;7.20
5286;DHT22;2665;53.112;7.358;2024-01-10T02:10:34;-5.10;10.20
5286;DHT22;2665;53.112;7.358;2024-01-10T02:13:01;-5.10;9.50
5286;DHT22;2665;53.112;7.358;2024-01-10T02:15:27;-5.10;8.80
5286;DHT22;2665;53.112;7.358;2024-01-10T02:17:52;-5.20;10.10
5286;DHT22;2665;53.112;7.358;2024-01-10T02:20:18;-5.20;11.00
5286;DHT22;2665;53.112;7.358;2024-01-10T02:22:44;-5.20;11.50
5286;DHT22;2665;53.112;7.358;2024-01-10T02:25:11;-5.20;13.40
5286;DHT22;2665;53.112;7.358;2024-01-10T02:27:37;-5.20;13.60
5286;DHT22;2665;53.112;7.358;2024-01-10T02:30:04;-5.20;14.70
5286;DHT22;2665;53.112;7.358;2024-01-10T02:32:31;-5.20;14.90
5286;DHT22;2665;53.112;7.358;2024-01-10T02:34:57;-5.20;16.00
5286;DHT22;2665;53.112;7.358;2024-01-10T02:37:22;-5.20;17.10
5286;DHT22;2665;53.112;7.358;2024-01-10T02:39:48;-5.20;19.80
5286;DHT22;2665;53.112;7.358;2024-01-10T02:42:14;-5.20;20.20
5286;DHT22;2665;53.112;7.358;2024-01-10T02:44:40;-5.20;20.20
5286;DHT22;2665;53.112;7.358;2024-01-10T02:47:06;-5.20;20.20
5286;DHT22;2665;53.112;7.358;2024-01-10T02:49:32;-5.20;20.20
5286;DHT22;2665;53.112;7.358;2024-01-10T02:51:58;-5.20;21.50
5286;DHT22;2665;53.112;7.358;2024-01-10T02:54:24;-5.20;21.20
5286;DHT22;2665;53.112;7.358;2024-01-10T02:56:49;-5.20;21.30
5286;DHT22;2665;53.112;7.358;2024-01-10T02:59:15;-5.20;22.30
5286;DHT22;2665;53.112;7.358;2024-01-10T03:01:41;-5.20;23.10
5286;DHT22;2665;53.112;7.358;2024-01-10T03:04:06;-5.20;24.00
5286;DHT22;2665;53.112;7.358;2024-01-10T03:06:32;-5.20;25.40
5286;DHT22;2665;53.112;7.358;2024-01-10T03:08:58;-5.10;26.40
5286;DHT22;2665;53.112;7.358;2024-01-10T03:11:23;-5.20;26.10
5286;DHT22;2665;53.112;7.358;2024-01-10T03:13:51;-5.20;25.10
5286;DHT22;2665;53.112;7.358;2024-01-10T03:16:17;-5.20;25.00
5286;DHT22;2665;53.112;7.358;2024-01-10T03:18:42;-5.20;24.50
5286;DHT22;2665;53.112;7.358;2024-01-10T03:21:08;-5.20;24.10
5286;DHT22;2665;53.112;7.358;2024-01-10T03:23:34;-5.20;24.50
5286;DHT22;2665;53.112;7.358;2024-01-10T03:25:59;-5.20;25.00
5286;DHT22;2665;53.112;7.358;2024-01-10T03:28:25;-5.20;26.10
5286;DHT22;2665;53.112;7.358;2024-01-10T03:30:50;-5.20;27.20
5286;DHT22;2665;53.112;7.358;2024-01-10T03:33:16;-5.10;27.70
5286;DHT22;2665;53.112;7.358;2024-01-10T03:35:42;-5.10;27.50
5286;DHT22;2665;53.112;7.358;2024-01-10T03:38:08;-5.10;27.60
5286;DHT22;2665;53.112;7.358;2024-01-10T03:40:34;-5.10;28.60
5286;DHT22;2665;53.112;7.358;2024-01-10T03:43:00;-5.00;28.70
5286;DHT22;2665;53.112;7.358;2024-01-10T03:45:26;-5.00;28.70
5286;DHT22;2665;53.112;7.358;2024-01-10T03:47:52;-5.00;28.50
5286;DHT22;2665;53.112;7.358;2024-01-10T03:50:18;-5.10;26.50
5286;DHT22;2665;53.112;7.358;2024-01-10T03:52:45;-5.00;26.10
5286;DHT22;2665;53.112;7.358;2024-01-10T03:55:12;-5.00;25.20
5286;DHT22;2665;53.112;7.358;2024-01-10T03:57:41;-5.00;24.40
5286;DHT22;2665;53.112;7.358;2024-01-10T04:00:08;-5.10;23.20
5286;DHT22;2665;53.112;7.358;2024-01-10T04:02:38;-5.10;22.50
5286;DHT22;2665;53.112;7.358;2024-01-10T04:05:07;-5.00;23.20
5286;DHT22;2665;53.112;7.358;2024-01-10T04:07:33;-5.00;22.60
5286;DHT22;2665;53.112;7.358;2024-01-10T04:09:59;-5.10;22.40
5286;DHT22;2665;53.112;7.358;2024-01-10T04:12:24;-5.10;22.50
5286;DHT22;2665;53.112;7.358;2024-01-10T04:14:50;-5.10;22.40
5286;DHT22;2665;53.112;7.358;2024-01-10T04:17:15;-5.10;21.40
5286;DHT22;2665;53.112;7.358;2024-01-10T04:19:41;-5.10;21.10
5286;DHT22;2665;53.112;7.358;2024-01-10T04:22:07;-5.10;20.30
5286;DHT22;2665;53.112;7.358;2024-01-10T04:24:32;-5.20;20.70
5286;DHT22;2665;53.112;7.358;2024-01-10T04:26:58;-5.10;20.30
5286;DHT22;2665;53.112;7.358;2024-01-10T04:29:24;-5.20;20.10
5286;DHT22;2665;53.112;7.358;2024-01-10T04:31:50;-5.20;19.30
5286;DHT22;2665;53.112;7.358;2024-01-10T04:34:15;-5.20;19.60
5286;DHT22;2665;53.112;7.358;2024-01-10T04:36:41;-5.20;20.50
5286;DHT22;2665;53.112;7.358;2024-01-10T04:39:06;-5.30;20.20
5286;DHT22;2665;53.112;7.358;2024-01-10T04:41:33;-5.20;20.20
5286;DHT22;2665;53.112;7.358;2024-01-10T04:43:58;-5.20;20.20
5286;DHT22;2665;53.112;7.358;2024-01-10T04:46:24;-5.20;20.10
5286;DHT22;2665;53.112;7.358;2024-01-10T04:48:49;-5.20;19.30
5286;DHT22;2665;53.112;7.358;2024-01-10T04:51:15;-5.30;19.30
5286;DHT22;2665;53.112;7.358;2024-01-10T04:53:41;-5.30;19.70
5286;DHT22;2665;53.112;7.358;2024-01-10T04:56:07;-5.30;20.10
5286;DHT22;2665;53.112;7.358;2024-01-10T04:58:32;-5.30;20.50
5286;DHT22;2665;53.112;7.358;2024-01-10T05:00:59;-5.30;20.20
5286;DHT22;2665;53.112;7.358;2024-01-10T05:03:25;-5.30;20.30
5286;DHT22;2665;53.112;7.358;2024-01-10T05:05:50;-5.30;20.20
5286;DHT22;2665;53.112;7.358;2024-01-10T05:08:16;-5.30;20.10
5286;DHT22;2665;53.112;7.358;2024-01-10T05:10:45;-5.30;20.10
5286;DHT22;2665;53.112;7.358;2024-01-10T05:13:12;-5.30;19.00
5286;DHT22;2665;53.112;7.358;2024-01-10T05:15:38;-5.30;20.10
5286;DHT22;2665;53.112;7.358;2024-01-10T05:18:04;-5.30;20.20
5286;DHT22;2665;53.112;7.358;2024-01-10T05:20:29;-5.30;20.20
5286;DHT22;2665;53.112;7.358;2024-01-10T05:22:55;-5.30;20.10
5286;DHT22;2665;53.112;7.358;2024-01-10T05:25:24;-5.30;20.10
5286;DHT22;2665;53.112;7.358;2024-01-10T05:27:50;-5.30;19.90
5286;DHT22;2665;53.112;7.358;2024-01-10T05:30:16;-5.40;19.10
5286;DHT22;2665;53.112;7.358;2024-01-10T05:32:43;-5.40;18.90
5286;DHT22;2665;53.112;7.358;2024-01-10T05:35:09;-5.40;20.10
5286;DHT22;2665;53.112;7.358;2024-01-10T05:37:36;-5.40;20.10
5286;DHT22;2665;53.112;7.358;2024-01-10T05:40:03;-5.40;19.90
5286;DHT22;2665;53.112;7.358;2024-01-10T05:42:31;-5.40;19.10
5286;DHT22;2665;53.112;7.358;2024-01-10T05:44:58;-5.40;18.70
5286;DHT22;2665;53.112;7.358;2024-01-10T05:47:24;-5.40;18.40
5286;DHT22;2665;53.112;7.358;2024-01-10T05:49:51;-5.40;19.30
5286;DHT22;2665;53.112;7.358;2024-01-10T05:52:18;-5.40;19.90
5286;DHT22;2665;53.112;7.358;2024-01-10T05:54:44;-5.50;19.20
5286;DHT22;2665;53.112;7.358;2024-01-10T05:57:10;-5.50;19.30
5286;DHT22;2665;53.112;7.358;2024-01-10T05:59:36;-5.50;19.90
5286;DHT22;2665;53.112;7.358;2024-01-10T06:02:02;-5.50;19.60
5286;DHT22;2665;53.112;7.358;2024-01-10T06:04:28;-5.50;18.60
5286;DHT22;2665;53.112;7.358;2024-01-10T06:06:58;-5.50;18.30
5286;DHT22;2665;53.112;7.358;2024-01-10T06:09:23;-5.50;17.30
5286;DHT22;2665;53.112;7.358;2024-01-10T06:11:49;-5.50;17.10
5286;DHT22;2665;53.112;7.358;2024-01-10T06:14:15;-5.50;17.00
5286;DHT22;2665;53.112;7.358;2024-01-10T06:16:41;-5.50;15.90
5286;DHT22;2665;53.112;7.358;2024-01-10T06:19:06;-5.50;15.20
5286;DHT22;2665;53.112;7.358;2024-01-10T06:21:32;-5.60;13.20
5286;DHT22;2665;53.112;7.358;2024-01-10T06:23:58;-5.60;11.20
5286;DHT22;2665;53.112;7.358;2024-01-10T06:26:23;-5.60;11.30
5286;DHT22;2665;53.112;7.358;2024-01-10T06:28:49;-5.60;11.90
5286;DHT22;2665;53.112;7.358;2024-01-10T06:31:14;-5.60;12.60
5286;DHT22;2665;53.112;7.358;2024-01-10T06:33:40;-5.60;12.60
5286;DHT22;2665;53.112;7.358;2024-01-10T06:36:06;-5.60;12.50
5286;DHT22;2665;53.112;7.358;2024-01-10T06:38:32;-5.60;11.30
5286;DHT22;2665;53.112;7.358;2024-01-10T06:40:58;-5.60;10.80
5286;DHT22;2665;53.112;7.358;2024-01-10T06:43:24;-5.60;6.70
5286;DHT22;2665;53.112;7.358;2024-01-10T06:45:49;-5.70;5.50
5286;DHT22;2665;53.112;7.358;2024-01-10T06:48:15;-5.70;5.30
5286;DHT22;2665;53.112;7.358;2024-01-10T06:50:41;-5.70;6.30
5286;DHT22;2665;53.112;7.358;2024-01-10T06:53:07;-5.70;6.70
5286;DHT22;2665;53.112;7.358;2024-01-10T06:55:33;-5.70;5.90
5286;DHT22;2665;53.112;7.358;2024-01-10T06:57:59;-5.70;5.50
5286;DHT22;2665;53.112;7.358;2024-01-10T07:00:25;-5.70;5.60
5286;DHT22;2665;53.112;7.358;2024-01-10T07:02:51;-5.70;4.60
5286;DHT22;2665;53.112;7.358;2024-01-10T07:05:17;-5.70;4.60
5286;DHT22;2665;53.112;7.358;2024-01-10T07:07:42;-5.70;4.70
5286;DHT22;2665;53.112;7.358;2024-01-10T07:10:09;-5.80;3.40
5286;DHT22;2665;53.112;7.358;2024-01-10T07:12:36;-5.80;2.10
5286;DHT22;2665;53.112;7.358;2024-01-10T07:15:01;-5.80;2.00
5286;DHT22;2665;53.112;7.358;2024-01-10T07:17:30;-5.80;2.00
5286;DHT22;2665;53.112;7.358;2024-01-10T07:19:55;-5.80;2.00
5286;DHT22;2665;53.112;7.358;2024-01-10T07:22:24;-5.80;2.00
5286;DHT22;2665;53.112;7.358;2024-01-10T07:24:50;-5.80;2.00
5286;DHT22;2665;53.112;7.358;2024-01-10T07:27:15;-5.80;2.00
5286;DHT22;2665;53.112;7.358;2024-01-10T07:29:41;-5.80;1.00
5286;DHT22;2665;53.112;7.358;2024-01-10T07:32:07;-5.90;1.00
5286;DHT22;2665;53.112;7.358;2024-01-10T07:34:37;-5.90;1.00
5286;DHT22;2665;53.112;7.358;2024-01-10T07:37:03;-5.90;1.90
5286;DHT22;2665;53.112;7.358;2024-01-10T07:39:29;-5.90;1.00
5286;DHT22;2665;53.112;7.358;2024-01-10T07:41:55;-5.90;1.00
5286;DHT22;2665;53.112;7.358;2024-01-10T07:44:21;-5.90;1.00
5286;DHT22;2665;53.112;7.358;2024-01-10T07:46:47;-5.90;1.00
5286;DHT22;2665;53.112;7.358;2024-01-10T07:49:13;-5.90;1.00
5286;DHT22;2665;53.112;7.358;2024-01-10T07:51:38;-5.90;1.00
5286;DHT22;2665;53.112;7.358;2024-01-10T07:54:04;-5.90;1.00
5286;DHT22;2665;53.112;7.358;2024-01-10T07:56:30;-6.00;1.00
5286;DHT22;2665;53.112;7.358;2024-01-10T07:58:56;-6.00;1.00
5286;DHT22;2665;53.112;7.358;2024-01-10T08:01:21;-5.90;1.00
5286;DHT22;2665;53.112;7.358;2024-01-10T08:03:47;-5.90;1.90
5286;DHT22;2665;53.112;7.358;2024-01-10T08:06:13;-5.90;3.30
5286;DHT22;2665;53.112;7.358;2024-01-10T08:08:39;-5.90;6.20
5286;DHT22;2665;53.112;7.358;2024-01-10T08:11:04;-5.80;7.10
5286;DHT22;2665;53.112;7.358;2024-01-10T08:13:31;-5.80;7.60
5286;DHT22;2665;53.112;7.358;2024-01-10T08:15:56;-5.70;7.00
5286;DHT22;2665;53.112;7.358;2024-01-10T08:18:23;-5.70;7.30
5286;DHT22;2665;53.112;7.358;2024-01-10T08:20:48;-5.60;7.40
5286;DHT22;2665;53.112;7.358;2024-01-10T08:23:14;-5.60;7.40
5286;DHT22;2665;53.112;7.358;2024-01-10T08:25:40;-5.60;4.50
5286;DHT22;2665;53.112;7.358;2024-01-10T08:28:06;-5.60;4.70
5286;DHT22;2665;53.112;7.358;2024-01-10T08:30:32;-5.50;6.50
5286;DHT22;2665;53.112;7.358;2024-01-10T08:32:58;-5.50;6.40
5286;DHT22;2665;53.112;7.358;2024-01-10T08:35:25;-5.40;6.00
5286;DHT22;2665;53.112;7.358;2024-01-10T08:37:50;-5.40;6.70
5286;DHT22;2665;53.112;7.358;2024-01-10T08:40:16;-5.40;6.00
5286;DHT22;2665;53.112;7.358;2024-01-10T08:42:42;-5.40;6.80
5286;DHT22;2665;53.112;7.358;2024-01-10T08:45:09;-5.30;9.60
5286;DHT22;2665;53.112;7.358;2024-01-10T08:47:36;-5.20;9.20
5286;DHT22;2665;53.112;7.358;2024-01-10T08:50:03;-5.20;8.80
5286;DHT22;2665;53.112;7.358;2024-01-10T08:52:35;-5.10;8.90
5286;DHT22;2665;53.112;7.358;2024-01-10T08:55:04;-5.00;9.40
5286;DHT22;2665;53.112;7.358;2024-01-10T08:57:30;-5.00;9.50
5286;DHT22;2665;53.112;7.358;2024-01-10T08:59:56;-4.90;7.90
5286;DHT22;2665;53.112;7.358;2024-01-10T09:02:21;-4.80;10.60
5286;DHT22;2665;53.112;7.358;2024-01-10T16:50:02;-3.20;1.00
5286;DHT22;2665;53.112;7.358;2024-01-10T16:52:28;-3.20;1.00
5286;DHT22;2665;53.112;7.358;2024-01-10T16:54:54;-3.30;1.00
5286;DHT22;2665;53.112;7.358;2024-01-10T16:57:20;-3.30;99.90
5286;DHT22;2665;53.112;7.358;2024-01-10T16:59:47;-3.30;99.90
5286;DHT22;2665;53.112;7.358;2024-01-10T17:02:13;-3.30;1.00
5286;DHT22;2665;53.112;7.358;2024-01-10T17:04:38;-3.40;1.00
5286;DHT22;2665;53.112;7.358;2024-01-10T17:07:04;-3.40;1.00
5286;DHT22;2665;53.112;7.358;2024-01-10T17:09:30;-3.50;1.00
5286;DHT22;2665;53.112;7.358;2024-01-10T17:11:56;-3.50;1.00
5286;DHT22;2665;53.112;7.358;2024-01-10T17:14:22;-3.60;1.00
5286;DHT22;2665;53.112;7.358;2024-01-10T17:16:47;-3.60;1.00
5286;DHT22;2665;53.112;7.358;2024-01-10T17:19:16;-3.60;99.90
5286;DHT22;2665;53.112;7.358;2024-01-10T17:21:42;-3.60;99.90
5286;DHT22;2665;53.112;7.358;2024-01-10T17:24:07;-3.60;99.90
5286;DHT22;2665;53.112;7.358;2024-01-10T17:26:33;-3.70;1.00
5286;DHT22;2665;53.112;7.358;2024-01-10T17:28:59;-3.70;1.00
5286;DHT22;2665;53.112;7.358;2024-01-10T17:31:24;-3.80;1.00
5286;DHT22;2665;53.112;7.358;2024-01-10T17:33:51;-3.80;99.90
5286;DHT22;2665;53.112;7.358;2024-01-10T17:36:19;-3.80;99.90
5286;DHT22;2665;53.112;7.358;2024-01-10T17:38:44;-3.90;1.00
5286;DHT22;2665;53.112;7.358;2024-01-10T17:41:10;-3.90;99.90
5286;DHT22;2665;53.112;7.358;2024-01-10T17:43:37;-3.90;1.00
5286;DHT22;2665;53.112;7.358;2024-01-10T17:46:03;-3.90;99.90
5286;DHT22;2665;53.112;7.358;2024-01-10T17:48:29;-3.90;1.00
5286;DHT22;2665;53.112;7.358;2024-01-10T17:50:55;-4.00;1.00
5286;DHT22;2665;53.112;7.358;2024-01-10T17:53:20;-4.00;1.00
5286;DHT22;2665;53.112;7.358;2024-01-10T17:55:46;-4.00;1.00
5286;DHT22;2665;53.112;7.358;2024-01-10T17:58:12;-4.00;1.00
5286;DHT22;2665;53.112;7.358;2024-01-10T18:00:37;-4.00;59.30
5286;DHT22;2665;53.112;7.358;2024-01-10T18:03:04;-4.10;99.90
5286;DHT22;2665;53.112;7.358;2024-01-10T18:05:29;-4.10;99.90
5286;DHT22;2665;53.112;7.358;2024-01-10T18:07:55;-4.10;99.90
5286;DHT22;2665;53.112;7.358;2024-01-10T18:10:21;-4.10;28.10
5286;DHT22;2665;53.112;7.358;2024-01-10T18:12:46;-4.20;99.90
5286;DHT22;2665;53.112;7.358;2024-01-10T18:15:12;-4.20;1.00
5286;DHT22;2665;53.112;7.358;2024-01-10T18:17:38;-4.30;1.00
5286;DHT22;2665;53.112;7.358;2024-01-10T18:20:04;-4.20;1.00
5286;DHT22;2665;53.112;7.358;2024-01-10T18:22:30;-4.30;1.00
5286;DHT22;2665;53.112;7.358;2024-01-10T18:24:56;-4.30;1.00
5286;DHT22;2665;53.112;7.358;2024-01-10T18:27:22;-4.30;1.00
5286;DHT22;2665;53.112;7.358;2024-01-10T18:29:47;-4.30;1.00
5286;DHT22;2665;53.112;7.358;2024-01-10T18:32:13;-4.40;20.70
5286;DHT22;2665;53.112;7.358;2024-01-10T18:34:39;-4.40;27.60
5286;DHT22;2665;53.112;7.358;2024-01-10T18:37:05;-4.50;99.90
5286;DHT22;2665;53.112;7.358;2024-01-10T18:39:31;-4.50;1.00
5286;DHT22;2665;53.112;7.358;2024-01-10T18:41:57;-4.60;1.00
5286;DHT22;2665;53.112;7.358;2024-01-10T18:44:23;-4.60;99.90
5286;DHT22;2665;53.112;7.358;2024-01-10T18:46:49;-4.60;1.00
5286;DHT22;2665;53.112;7.358;2024-01-10T18:49:16;-4.60;99.90
5286;DHT22;2665;53.112;7.358;2024-01-10T18:51:42;-4.60;1.00
5286;DHT22;2665;53.112;7.358;2024-01-10T18:54:08;-4.60;1.00
5286;DHT22;2665;53.112;7.358;2024-01-10T18:56:34;-4.60;1.00
5286;DHT22;2665;53.112;7.358;2024-01-10T18:58:59;-4.60;1.00
5286;DHT22;2665;53.112;7.358;2024-01-10T19:01:25;-4.60;1.00
5286;DHT22;2665;53.112;7.358;2024-01-10T19:03:51;-4.60;60.20
5286;DHT22;2665;53.112;7.358;2024-01-10T19:06:17;-4.50;37.00
5286;DHT22;2665;53.112;7.358;2024-01-10T19:08:42;-4.60;1.00
5286;DHT22;2665;53.112;7.358;2024-01-10T19:11:09;-4.60;58.80
5286;DHT22;2665;53.112;7.358;2024-01-10T19:13:35;-4.60;99.90
5286;DHT22;2665;53.112;7.358;2024-01-10T19:16:08;-4.60;99.90
5286;DHT22;2665;53.112;7.358;2024-01-10T19:18:35;-4.60;99.90
5286;DHT22;2665;53.112;7.358;2024-01-10T19:21:01;-4.60;1.00
5286;DHT22;2665;53.112;7.358;2024-01-10T19:23:28;-4.50;1.00
5286;DHT22;2665;53.112;7.358;2024-01-10T19:25:54;-4.60;1.00
5286;DHT22;2665;53.112;7.358;2024-01-10T19:28:21;-4.60;1.00
5286;DHT22;2665;53.112;7.358;2024-01-10T19:30:47;-4.50;1.00
5286;DHT22;2665;53.112;7.358;2024-01-10T19:33:12;-4.50;1.00
5286;DHT22;2665;53.112;7.358;2024-01-10T19:35:38;-4.50;1.00
5286;DHT22;2665;53.112;7.358;2024-01-10T19:38:04;-4.50;1.00
5286;DHT22;2665;53.112;7.358;2024-01-10T19:40:29;-4.50;1.00
5286;DHT22;2665;53.112;7.358;2024-01-10T19:42:56;-4.60;1.00
5286;DHT22;2665;53.112;7.358;2024-01-10T19:45:21;-4.60;1.00
5286;DHT22;2665;53.112;7.358;2024-01-10T19:47:47;-4.60;1.00
5286;DHT22;2665;53.112;7.358;2024-01-10T19:50:13;-4.60;1.00
5286;DHT22;2665;53.112;7.358;2024-01-10T19:52:39;-4.70;1.00
5286;DHT22;2665;53.112;7.358;2024-01-10T19:55:05;-4.70;1.00
5286;DHT22;2665;53.112;7.358;2024-01-10T19:57:31;-4.80;99.90
5286;DHT22;2665;53.112;7.358;2024-01-10T19:59:57;-4.80;99.90
5286;DHT22;2665;53.112;7.358;2024-01-10T20:02:23;-4.80;99.90
5286;DHT22;2665;53.112;7.358;2024-01-10T20:04:49;-4.80;99.90
5286;DHT22;2665;53.112;7.358;2024-01-10T20:07:15;-4.80;99.90
5286;DHT22;2665;53.112;7.358;2024-01-10T20:09:41;-4.70;99.90
5286;DHT22;2665;53.112;7.358;2024-01-10T20:12:11;-4.80;99.90
5286;DHT22;2665;53.112;7.358;2024-01-10T20:14:37;-4.80;99.90
5286;DHT22;2665;53.112;7.358;2024-01-10T20:17:02;-4.80;99.90
5286;DHT22;2665;53.112;7.358;2024-01-10T20:19:28;-4.80;99.90
5286;DHT22;2665;53.112;7.358;2024-01-10T20:21:54;-4.90;99.90
5286;DHT22;2665;53.112;7.358;2024-01-10T20:24:20;-4.80;99.90
5286;DHT22;2665;53.112;7.358;2024-01-10T20:26:46;-4.90;99.90
5286;DHT22;2665;53.112;7.358;2024-01-10T20:29:12;-4.90;99.90
5286;DHT22;2665;53.112;7.358;2024-01-10T20:31:38;-4.90;99.90
5286;DHT22;2665;53.112;7.358;2024-01-10T20:34:03;-5.00;83.70
5286;DHT22;2665;53.112;7.358;2024-01-10T20:36:29;-5.00;1.00
5286;DHT22;2665;53.112;7.358;2024-01-10T20:38:55;-5.00;1.00
5286;DHT22;2665;53.112;7.358;2024-01-10T20:41:20;-5.10;1.00
5286;DHT22;2665;53.112;7.358;2024-01-10T20:43:46;-5.10;99.90
5286;DHT22;2665;53.112;7.358;2024-01-10T20:46:13;-5.10;1.00
5286;DHT22;2665;53.112;7.358;2024-01-10T20:48:41;-5.10;1.00
5286;DHT22;2665;53.112;7.358;2024-01-10T20:51:07;-5.10;16.60
5286;DHT22;2665;53.112;7.358;2024-01-10T20:53:33;-5.10;16.40
5286;DHT22;2665;53.112;7.358;2024-01-10T20:56:00;-5.10;1.00
5286;DHT22;2665;53.112;7.358;2024-01-10T20:58:25;-5.20;1.00
5286;DHT22;2665;53.112;7.358;2024-01-10T21:00:51;-5.20;1.00
5286;DHT22;2665;53.112;7.358;2024-01-10T21:03:17;-5.20;1.00
5286;DHT22;2665;53.112;7.358;2024-01-10T21:05:43;-5.20;1.00
5286;DHT22;2665;53.112;7.358;2024-01-10T21:08:13;-5.20;1.00
5286;DHT22;2665;53.112;7.358;2024-01-10T21:10:39;-5.20;99.90
5286;DHT22;2665;53.112;7.358;2024-01-10T21:13:05;-5.20;99.90
5286;DHT22;2665;53.112;7.358;2024-01-10T21:15:30;-5.20;99.90
5286;DHT22;2665;53.112;7.358;2024-01-10T21:17:58;-5.20;99.90
5286;DHT22;2665;53.112;7.358;2024-01-10T21:20:24;-5.20;99.90
5286;DHT22;2665;53.112;7.358;2024-01-10T21:22:49;-5.30;99.90
5286;DHT22;2665;53.112;7.358;2024-01-10T21:25:17;-5.30;99.90
5286;DHT22;2665;53.112;7.358;2024-01-10T21:27:43;-5.30;99.90
5286;DHT22;2665;53.112;7.358;2024-01-10T21:30:09;-5.30;99.90
5286;DHT22;2665;53.112;7.358;2024-01-10T21:32:35;-5.40;99.90
5286;DHT22;2665;53.112;7.358;2024-01-10T21:35:00;-5.40;99.90
5286;DHT22;2665;53.112;7.358;2024-01-10T21:37:26;-5.30;99.90
5286;DHT22;2665;53.112;7.358;2024-01-10T21:39:52;-5.30;99.90
5286;DHT22;2665;53.112;7.358;2024-01-10T21:42:17;-5.30;99.90
5286;DHT22;2665;53.112;7.358;2024-01-10T21:44:43;-5.30;99.90
5286;DHT22;2665;53.112;7.358;2024-01-10T21:47:09;-5.30;1.00
5286;DHT22;2665;53.112;7.358;2024-01-10T21:49:35;-5.30;1.00
5286;DHT22;2665;53.112;7.358;2024-01-10T21:52:01;-5.30;1.00
5286;DHT22;2665;53.112;7.358;2024-01-10T21:54:26;-5.30;1.00
5286;DHT22;2665;53.112;7.358;2024-01-10T21:56:52;-5.30;1.00
5286;DHT22;2665;53.112;7.358;2024-01-10T21:59:18;-5.20;1.00
5286;DHT22;2665;53.112;7.358;2024-01-10T22:01:44;-5.40;1.00
5286;DHT22;2665;53.112;7.358;2024-01-10T22:04:09;-5.40;1.00
5286;DHT22;2665;53.112;7.358;2024-01-10T22:06:35;-5.40;1.00
5286;DHT22;2665;53.112;7.358;2024-01-10T22:09:01;-5.50;1.00
5286;DHT22;2665;53.112;7.358;2024-01-10T22:11:26;-5.50;1.00
5286;DHT22;2665;53.112;7.358;2024-01-10T22:13:52;-5.50;1.00
5286;DHT22;2665;53.112;7.358;2024-01-10T22:16:18;-5.50;1.00
5286;DHT22;2665;53.112;7.358;2024-01-10T22:18:44;-5.50;1.00
5286;DHT22;2665;53.112;7.358;2024-01-10T22:21:10;-5.50;1.00
5286;DHT22;2665;53.112;7.358;2024-01-10T22:23:36;-5.50;1.00
5286;DHT22;2665;53.112;7.358;2024-01-10T22:26:02;-5.40;1.00
5286;DHT22;2665;53.112;7.358;2024-01-10T22:28:28;-5.50;1.00
5286;DHT22;2665;53.112;7.358;2024-01-10T22:30:54;-5.50;1.00
5286;DHT22;2665;53.112;7.358;2024-01-10T22:33:21;-5.50;1.00
5286;DHT22;2665;53.112;7.358;2024-01-10T22:35:48;-5.60;1.00
5286;DHT22;2665;53.112;7.358;2024-01-10T22:38:13;-5.60;1.00
5286;DHT22;2665;53.112;7.358;2024-01-10T22:40:39;-5.70;1.00
5286;DHT22;2665;53.112;7.358;2024-01-10T22:43:04;-5.70;1.00
5286;DHT22;2665;53.112;7.358;2024-01-10T22:45:31;-5.70;1.00
5286;DHT22;2665;53.112;7.358;2024-01-10T22:47:57;-5.80;1.00
5286;DHT22;2665;53.112;7.358;2024-01-10T22:50:23;-5.80;1.00
5286;DHT22;2665;53.112;7.358;2024-01-10T22:52:48;-5.80;1.00
5286;DHT22;2665;53.112;7.358;2024-01-10T22:55:14;-5.80;1.00
5286;DHT22;2665;53.112;7.358;2024-01-10T22:57:40;-5.80;1.00
5286;DHT22;2665;53.112;7.358;2024-01-10T23:00:06;-5.80;1.00
5286;DHT22;2665;53.112;7.358;2024-01-10T23:02:36;-5.80;1.00
5286;DHT22;2665;53.112;7.358;2024-01-10T23:05:02;-5.70;1.00
5286;DHT22;2665;53.112;7.358;2024-01-10T23:07:29;-5.70;1.00
5286;DHT22;2665;53.112;7.358;2024-01-10T23:09:54;-5.70;1.00
5286;DHT22;2665;53.112;7.358;2024-01-10T23:12:20;-5.70;1.00
5286;DHT22;2665;53.112;7.358;2024-01-10T23:14:46;-5.60;1.00
5286;DHT22;2665;53.112;7.358;2024-01-10T23:17:11;-5.60;1.00
5286;DHT22;2665;53.112;7.358;2024-01-10T23:19:37;-5.60;1.00
5286;DHT22;2665;53.112;7.358;2024-01-10T23:22:03;-5.60;1.00
5286;DHT22;2665;53.112;7.358;2024-01-10T23:24:29;-5.60;1.00
5286;DHT22;2665;53.112;7.358;2024-01-10T23:26:54;-5.60;1.00
5286;DHT22;2665;53.112;7.358;2024-01-10T23:29:20;-5.60;1.00
5286;DHT22;2665;53.112;7.358;2024-01-10T23:31:49;-5.60;1.00
5286;DHT22;2665;53.112;7.358;2024-01-10T23:34:15;-5.60;1.00
5286;DHT22;2665;53.112;7.358;2024-01-10T23:36:41;-5.70;1.00
5286;DHT22;2665;53.112;7.358;2024-01-10T23:39:07;-5.70;1.00
5286;DHT22;2665;53.112;7.358;2024-01-10T23:41:33;-5.70;1.00
5286;DHT22;2665;53.112;7.358;2024-01-10T23:43:58;-5.80;1.00
5286;DHT22;2665;53.112;7.358;2024-01-10T23:46:24;-5.80;1.00
5286;DHT22;2665;53.112;7.358;2024-01-10T23:48:50;-5.80;1.00